Time;durP1;ratioP1;P1;durP2;ratioP2;P2;SDS_P1;SDS_P2;PMS_P1;PMS_P2;Temp;Humidity;BMP_temperature;BMP_pressure;BME280_temperature;BME280_humidity;BME280_pressure;Samples;Min_cycle;Max_cycle;Signal;HPM_P1;HPM_P2
2022/12/11 00:00:50;;;;;;;19.23;13.90;;;6.70;56.10;;;;;;5044297;28;20201;-58
2022/12/11 00:03:17;;;;;;;18.50;13.87;;;6.70;55.90;;;;;;5047453;28;20457;-58
2022/12/11 00:05:43;;;;;;;16.30;12.17;;;6.70;55.90;;;;;;5042465;28;20474;-58
2022/12/11 00:08:10;;;;;;;19.17;14.30;;;6.60;55.80;;;;;;5043593;28;20454;-58
2022/12/11 00:10:36;;;;;;;16.50;13.80;;;6.60;55.80;;;;;;5039246;28;20545;-58
2022/12/11 00:13:01;;;;;;;16.23;12.93;;;6.70;55.90;;;;;;5039686;28;20452;-58
2022/12/11 00:15:27;;;;;;;17.00;12.43;;;6.70;55.80;;;;;;5039117;28;20608;-58
2022/12/11 00:17:53;;;;;;;18.13;13.27;;;6.70;55.80;;;;;;5047906;28;20275;-58
2022/12/11 00:20:18;;;;;;;15.10;11.07;;;6.70;55.70;;;;;;5041663;28;21145;-58
2022/12/11 00:22:44;;;;;;;14.20;11.17;;;6.70;55.50;;;;;;5044947;28;20683;-58
2022/12/11 00:25:09;;;;;;;17.10;12.40;;;6.70;55.40;;;;;;5032508;28;21341;-58
2022/12/11 00:27:35;;;;;;;15.50;11.53;;;6.70;55.40;;;;;;5040262;28;20727;-58
2022/12/11 00:30:01;;;;;;;15.33;11.43;;;6.70;55.50;;;;;;5044888;28;20236;-58
2022/12/11 00:32:26;;;;;;;17.30;12.57;;;6.70;55.40;;;;;;5041919;28;20189;-57
2022/12/11 00:34:52;;;;;;;17.77;12.57;;;6.80;55.40;;;;;;5037501;28;20247;-58
2022/12/11 00:37:17;;;;;;;14.90;10.97;;;6.70;55.00;;;;;;5044597;28;20284;-58
2022/12/11 00:39:43;;;;;;;17.97;13.57;;;6.60;55.10;;;;;;5040442;28;20200;-58
2022/12/11 00:42:09;;;;;;;17.10;13.60;;;6.60;55.30;;;;;;5046817;28;20615;-58
2022/12/11 00:44:35;;;;;;;16.10;12.33;;;6.60;55.40;;;;;;5041822;28;20196;-58
2022/12/11 00:47:00;;;;;;;20.00;13.97;;;6.70;55.50;;;;;;5042354;28;20203;-58
2022/12/11 00:49:26;;;;;;;24.80;16.30;;;6.70;55.30;;;;;;5050268;28;20530;-58
2022/12/11 00:51:52;;;;;;;21.63;15.47;;;6.60;55.60;;;;;;5048166;28;20285;-58
2022/12/11 00:54:17;;;;;;;19.57;14.60;;;6.50;55.80;;;;;;5042632;28;20657;-58
2022/12/11 00:56:43;;;;;;;20.77;15.80;;;6.50;56.10;;;;;;5036255;28;20201;-58
2022/12/11 00:59:08;;;;;;;20.33;14.10;;;6.50;56.00;;;;;;5045938;28;20200;-58
2022/12/11 01:01:34;;;;;;;21.17;15.17;;;6.60;55.90;;;;;;5049637;28;20210;-58
2022/12/11 01:04:00;;;;;;;19.40;14.67;;;6.60;55.80;;;;;;5052144;28;20563;-58
2022/12/11 01:06:27;;;;;;;19.70;13.90;;;6.50;55.70;;;;;;5050561;28;20188;-58
2022/12/11 01:10:22;;;;;;;17.67;13.20;;;6.60;55.80;;;;;;5050223;28;20419;-58
2022/12/11 01:11:39;;;;;;;20.53;14.47;;;6.60;55.70;;;;;;5056127;28;20839;-58
2022/12/11 01:14:05;;;;;;;19.07;14.70;;;6.70;55.70;;;;;;5039480;28;20472;-58
2022/12/11 01:16:31;;;;;;;15.00;12.10;;;6.60;55.80;;;;;;5036815;28;20525;-58
2022/12/11 01:18:57;;;;;;;18.73;13.57;;;6.50;55.30;;;;;;5038296;28;20555;-58
2022/12/11 01:21:23;;;;;;;17.70;13.53;;;6.60;55.20;;;;;;5041890;28;20326;-58
2022/12/11 01:23:50;;;;;;;18.63;13.23;;;6.70;55.20;;;;;;5037032;28;20479;-58
2022/12/11 01:26:16;;;;;;;18.33;13.00;;;6.70;55.10;;;;;;5036593;28;20450;-58
2022/12/11 01:28:42;;;;;;;18.83;13.67;;;6.70;55.10;;;;;;5038651;28;20807;-58
2022/12/11 01:31:09;;;;;;;17.87;13.03;;;6.70;55.10;;;;;;5043071;28;20586;-58
2022/12/11 01:33:37;;;;;;;17.60;12.80;;;6.70;55.50;;;;;;5042249;28;20480;-58
2022/12/11 01:36:10;;;;;;;19.30;12.90;;;6.60;55.70;;;;;;5045521;28;20510;-58
2022/12/11 01:38:36;;;;;;;18.10;12.93;;;6.60;55.40;;;;;;5043620;28;20496;-58
2022/12/11 01:41:02;;;;;;;22.37;15.93;;;6.70;55.40;;;;;;5044339;28;20435;-58
2022/12/11 01:43:27;;;;;;;17.83;13.70;;;6.70;55.40;;;;;;5045560;28;20196;-58
2022/12/11 01:45:53;;;;;;;17.33;13.77;;;6.80;55.20;;;;;;5039361;28;20492;-58
2022/12/11 01:48:30;;;;;;;17.53;12.80;;;6.80;55.10;;;;;;5039388;28;20547;-58
2022/12/11 01:51:03;;;;;;;18.23;12.17;;;6.80;55.10;;;;;;5032643;28;20600;-58
2022/12/11 01:53:44;;;;;;;15.40;12.30;;;6.70;54.90;;;;;;5042053;28;20466;-58
2022/12/11 01:56:10;;;;;;;16.47;11.60;;;6.80;54.90;;;;;;5036869;28;20513;-58
2022/12/11 01:59:06;;;;;;;18.40;12.80;;;6.70;54.90;;;;;;5037760;28;20837;-58
2022/12/11 02:01:43;;;;;;;18.20;13.00;;;6.70;54.70;;;;;;5038619;28;20820;-58
2022/12/11 02:04:10;;;;;;;20.43;14.10;;;6.80;54.80;;;;;;5044059;28;20467;-58
2022/12/11 02:06:41;;;;;;;16.60;12.27;;;6.80;54.80;;;;;;5032922;28;20450;-59
2022/12/11 02:09:20;;;;;;;18.33;13.77;;;6.80;54.60;;;;;;5036845;28;20528;-58
2022/12/11 02:12:04;;;;;;;19.70;14.20;;;6.90;54.70;;;;;;5038659;28;20555;-59
2022/12/11 02:14:39;;;;;;;18.57;13.27;;;6.80;54.40;;;;;;5042571;28;20512;-58
2022/12/11 02:17:20;;;;;;;19.17;13.90;;;6.80;54.50;;;;;;5045372;28;20438;-58
2022/12/11 02:20:10;;;;;;;18.03;13.97;;;6.80;54.60;;;;;;5044110;28;20501;-58
2022/12/11 02:23:10;;;;;;;18.87;12.93;;;6.90;54.50;;;;;;5046155;28;20457;-58
2022/12/11 02:25:56;;;;;;;18.90;13.17;;;6.90;54.30;;;;;;5034458;28;20456;-58
2022/12/11 02:28:32;;;;;;;17.40;13.37;;;6.80;54.30;;;;;;5037155;28;20455;-58
2022/12/11 02:31:28;;;;;;;18.57;13.33;;;6.90;54.20;;;;;;5031952;28;20494;-58
2022/12/11 02:34:12;;;;;;;19.43;12.90;;;6.80;54.10;;;;;;5038155;28;20518;-58
2022/12/11 02:36:43;;;;;;;19.67;13.10;;;6.80;53.70;;;;;;5033194;28;20529;-58
2022/12/11 02:39:12;;;;;;;14.17;11.97;;;6.90;53.70;;;;;;5031741;28;20452;-58
2022/12/11 02:41:41;;;;;;;18.87;12.80;;;6.90;53.80;;;;;;5037634;28;20456;-58
2022/12/11 02:44:11;;;;;;;20.53;14.10;;;6.90;53.90;;;;;;5036794;28;20940;-58
2022/12/11 02:46:36;;;;;;;16.97;12.13;;;6.90;53.80;;;;;;5038727;28;20439;-58
2022/12/11 02:49:05;;;;;;;16.83;12.67;;;6.90;53.80;;;;;;5031886;28;20533;-58
2022/12/11 02:51:36;;;;;;;18.87;14.03;;;6.90;53.70;;;;;;5036449;28;20224;-58
2022/12/11 02:54:06;;;;;;;20.03;14.70;;;6.90;53.80;;;;;;5047073;28;20450;-58
2022/12/11 02:56:44;;;;;;;20.03;14.20;;;6.90;53.80;;;;;;5032080;28;21160;-58
2022/12/11 02:59:16;;;;;;;18.50;14.10;;;6.90;54.00;;;;;;5028907;28;20450;-58
2022/12/11 03:01:42;;;;;;;19.67;13.77;;;6.90;54.20;;;;;;5038870;28;20800;-59
2022/12/11 03:04:08;;;;;;;17.53;13.27;;;6.90;54.30;;;;;;5047869;28;20451;-58
2022/12/11 03:06:43;;;;;;;21.03;14.97;;;6.90;54.20;;;;;;5047830;28;20553;-58
2022/12/11 03:09:09;;;;;;;20.57;14.47;;;6.90;54.30;;;;;;5042636;28;20426;-58
2022/12/11 03:11:34;;;;;;;16.27;12.80;;;6.90;54.50;;;;;;5052310;28;20509;-58
2022/12/11 03:14:04;;;;;;;16.60;12.57;;;6.90;54.60;;;;;;5041278;28;20449;-60
2022/12/11 03:16:55;;;;;;;20.37;13.80;;;6.90;54.50;;;;;;5048609;28;20200;-58
2022/12/11 03:19:40;;;;;;;20.20;13.60;;;6.90;54.40;;;;;;5047019;28;22344;-58
2022/12/11 03:22:30;;;;;;;19.80;14.20;;;6.90;54.40;;;;;;5050468;28;20446;-58
2022/12/11 03:25:21;;;;;;;25.73;15.97;;;6.90;54.50;;;;;;5041987;28;20482;-58
2022/12/11 03:27:56;;;;;;;21.63;13.57;;;6.90;54.30;;;;;;5029097;28;20443;-58
2022/12/11 03:30:23;;;;;;;19.90;14.60;;;7.00;54.40;;;;;;5041092;28;20482;-58
2022/12/11 03:33:02;;;;;;;21.60;15.10;;;7.00;54.30;;;;;;5040729;28;20958;-58
2022/12/11 03:35:32;;;;;;;21.90;14.30;;;6.90;54.20;;;;;;5045761;28;20515;-58
2022/12/11 03:38:04;;;;;;;19.17;13.87;;;6.90;54.60;;;;;;5039668;28;20439;-58
2022/12/11 03:40:32;;;;;;;18.40;14.00;;;7.00;54.20;;;;;;5038816;28;20439;-58
2022/12/11 03:42:59;;;;;;;18.13;13.80;;;7.00;54.10;;;;;;5045602;28;20459;-58
2022/12/11 03:45:27;;;;;;;18.33;13.93;;;7.00;54.00;;;;;;5035902;28;20809;-58
2022/12/11 03:47:56;;;;;;;20.67;14.17;;;7.00;53.90;;;;;;5042554;28;20474;-58
2022/12/11 03:50:25;;;;;;;18.97;13.20;;;6.90;53.70;;;;;;5051148;28;20974;-58
2022/12/11 03:52:52;;;;;;;16.80;12.90;;;6.90;53.90;;;;;;5051516;28;20436;-58
2022/12/11 03:55:20;;;;;;;16.03;12.93;;;6.90;53.90;;;;;;5045192;28;20450;-58
2022/12/11 03:57:46;;;;;;;20.20;14.07;;;6.90;53.90;;;;;;5048376;28;20446;-58
2022/12/11 04:00:15;;;;;;;19.40;13.70;;;6.90;53.90;;;;;;5045301;28;20450;-58
2022/12/11 04:02:42;;;;;;;17.33;12.30;;;6.90;54.00;;;;;;5037151;28;20259;-58
2022/12/11 04:05:08;;;;;;;18.50;13.13;;;6.80;53.80;;;;;;5037484;28;20978;-58
2022/12/11 04:07:34;;;;;;;15.80;12.33;;;6.80;53.80;;;;;;5045260;28;20439;-58
2022/12/11 04:10:00;;;;;;;16.27;12.03;;;6.80;53.80;;;;;;5037282;28;20439;-58
2022/12/11 04:12:26;;;;;;;17.27;13.10;;;6.80;54.10;;;;;;5038810;28;20560;-58
2022/12/11 04:15:00;;;;;;;17.27;12.67;;;6.80;54.20;;;;;;5047528;28;20481;-58
2022/12/11 04:25:39;;;;;;;17.87;13.00;;;6.70;54.50;;;;;;5039012;28;20822;-58
2022/12/11 04:28:05;;;;;;;16.30;12.43;;;6.70;54.30;;;;;;5042254;28;20443;-58
2022/12/11 04:30:30;;;;;;;14.27;11.00;;;6.70;54.50;;;;;;5043003;28;20228;-58
2022/12/11 04:32:56;;;;;;;17.40;12.73;;;6.80;54.50;;;;;;5040375;28;20579;-58
2022/12/11 04:35:22;;;;;;;14.73;11.70;;;6.80;54.40;;;;;;5033484;28;20197;-58
2022/12/11 04:37:48;;;;;;;13.73;11.07;;;6.70;54.20;;;;;;5036325;28;20207;-58
2022/12/11 04:40:16;;;;;;;13.77;10.90;;;6.80;54.10;;;;;;5039592;28;20215;-58
2022/12/11 04:42:42;;;;;;;15.70;12.17;;;6.70;53.90;;;;;;5035098;28;20435;-58
2022/12/11 04:45:09;;;;;;;17.73;12.40;;;6.80;53.80;;;;;;5040188;28;20443;-58
2022/12/11 04:47:36;;;;;;;15.47;11.43;;;6.80;53.80;;;;;;5042478;28;20606;-58
2022/12/11 04:50:03;;;;;;;15.10;11.87;;;6.80;53.90;;;;;;5038901;28;20455;-58
2022/12/11 04:52:28;;;;;;;15.73;12.47;;;6.80;54.00;;;;;;5038863;28;20499;-58
2022/12/11 04:54:55;;;;;;;13.83;11.03;;;6.70;54.10;;;;;;5040004;28;20820;-58
2022/12/11 04:57:20;;;;;;;13.60;11.20;;;6.70;54.30;;;;;;5041853;28;20279;-58
2022/12/11 04:59:46;;;;;;;15.30;12.37;;;6.70;54.30;;;;;;5041229;28;20530;-58
2022/12/11 05:02:12;;;;;;;16.83;11.83;;;6.70;54.90;;;;;;5035938;28;20634;-58
2022/12/11 05:04:38;;;;;;;16.47;12.37;;;6.70;54.30;;;;;;5037678;28;20471;-58
2022/12/11 05:07:04;;;;;;;15.73;12.40;;;6.70;54.50;;;;;;5048369;28;20193;-58
2022/12/11 05:09:29;;;;;;;17.10;12.40;;;6.70;54.60;;;;;;5047528;28;20226;-58
2022/12/11 05:11:55;;;;;;;16.90;13.10;;;6.70;54.60;;;;;;5037531;28;20228;-58
2022/12/11 05:14:20;;;;;;;19.40;14.00;;;6.70;54.70;;;;;;5033901;28;20188;-58
2022/12/11 05:16:47;;;;;;;17.20;13.20;;;6.70;54.80;;;;;;5040328;28;20649;-58
2022/12/11 05:19:12;;;;;;;20.20;15.40;;;6.70;55.00;;;;;;5037937;28;20197;-58
2022/12/11 05:21:38;;;;;;;17.73;13.33;;;6.60;55.10;;;;;;5039876;28;20443;-58
2022/12/11 05:24:04;;;;;;;19.83;14.53;;;6.60;55.20;;;;;;5038333;28;20247;-58
2022/12/11 05:26:29;;;;;;;17.70;13.50;;;6.60;55.00;;;;;;5039077;28;20203;-58
2022/12/11 05:28:55;;;;;;;17.13;13.30;;;6.70;55.00;;;;;;5037802;28;20788;-58
2022/12/11 05:31:23;;;;;;;20.43;14.13;;;6.70;55.00;;;;;;5047505;28;20224;-58
2022/12/11 05:33:50;;;;;;;23.00;14.13;;;6.60;55.00;;;;;;5049942;28;20220;-58
2022/12/11 05:36:19;;;;;;;18.93;14.27;;;6.70;55.00;;;;;;5034527;28;20530;-58
2022/12/11 05:38:45;;;;;;;19.73;14.83;;;6.60;54.80;;;;;;5039568;28;20435;-58
2022/12/11 05:41:14;;;;;;;18.60;14.50;;;6.70;54.80;;;;;;5035642;28;20446;-58
2022/12/11 05:43:39;;;;;;;18.40;14.90;;;6.70;54.80;;;;;;5046757;28;20350;-58
2022/12/11 05:46:31;;;;;;;20.57;13.87;;;6.60;54.70;;;;;;5035300;28;21014;-58
2022/12/11 05:49:00;;;;;;;19.17;14.50;;;6.60;54.80;;;;;;5041471;28;20258;-57
2022/12/11 05:51:27;;;;;;;21.67;15.53;;;6.60;54.90;;;;;;5035698;28;20486;-58
2022/12/11 05:53:54;;;;;;;21.03;14.57;;;6.60;54.90;;;;;;5032238;28;20522;-58
2022/12/11 05:56:22;;;;;;;24.97;16.30;;;6.60;55.00;;;;;;5037146;28;20523;-58
2022/12/11 05:58:48;;;;;;;24.30;15.40;;;6.60;55.10;;;;;;5051398;28;20438;-58
2022/12/11 06:01:19;;;;;;;19.57;14.30;;;6.60;54.90;;;;;;5037412;28;22732;-57
2022/12/11 06:03:45;;;;;;;18.70;13.93;;;6.60;54.90;;;;;;5032171;28;20525;-58
2022/12/11 06:06:11;;;;;;;22.40;14.90;;;6.50;54.80;;;;;;5038907;28;20439;-58
2022/12/11 06:08:36;;;;;;;22.73;15.87;;;6.50;54.90;;;;;;5034134;28;20192;-60
2022/12/11 06:11:03;;;;;;;21.00;15.37;;;6.60;55.10;;;;;;5040326;28;20495;-58
2022/12/11 06:13:28;;;;;;;22.30;15.63;;;6.60;55.10;;;;;;5041499;28;20199;-58
2022/12/11 06:15:54;;;;;;;23.00;16.70;;;6.60;55.10;;;;;;5034914;28;20448;-58
2022/12/11 06:18:20;;;;;;;23.50;16.50;;;6.60;55.10;;;;;;5044365;28;20322;-58
2022/12/11 06:20:46;;;;;;;23.07;16.67;;;6.60;55.10;;;;;;5034725;28;20797;-58
2022/12/11 06:23:11;;;;;;;22.63;15.03;;;6.50;55.00;;;;;;5037247;28;20311;-58
2022/12/11 06:25:38;;;;;;;20.33;14.60;;;6.50;55.10;;;;;;5046226;28;20204;-58
2022/12/11 06:28:04;;;;;;;24.10;17.43;;;6.50;55.20;;;;;;5042973;28;20629;-59
2022/12/11 06:30:29;;;;;;;19.00;14.30;;;6.50;55.60;;;;;;5040972;28;20491;-59
2022/12/11 06:32:57;;;;;;;24.13;17.60;;;6.70;58.10;;;;;;5038815;28;20232;-59
2022/12/11 06:35:22;;;;;;;22.10;16.67;;;7.20;63.30;;;;;;5035885;28;20195;-59
2022/12/11 06:37:48;;;;;;;21.80;16.33;;;7.60;61.60;;;;;;5032802;28;20448;-59
2022/12/11 06:40:14;;;;;;;22.50;16.03;;;7.90;59.40;;;;;;5038941;28;20197;-59
2022/12/11 06:42:39;;;;;;;19.47;15.27;;;8.10;56.70;;;;;;5037659;28;20188;-59
2022/12/11 06:45:05;;;;;;;22.40;17.17;;;8.10;54.60;;;;;;5034926;28;20196;-58
2022/12/11 06:47:32;;;;;;;22.37;16.50;;;8.10;53.70;;;;;;5036365;28;20219;-58
2022/12/11 06:49:57;;;;;;;23.40;16.37;;;8.10;52.40;;;;;;5041119;28;20455;-58
2022/12/11 06:55:09;;;;;;;24.20;17.13;;;7.70;52.10;;;;;;5052519;23;20259;-58
2022/12/11 06:57:35;;;;;;;22.40;15.57;;;7.60;52.10;;;;;;5024808;28;20440;-58
2022/12/11 07:00:01;;;;;;;19.90;16.33;;;7.40;52.20;;;;;;5028977;28;20572;-58
2022/12/11 07:02:26;;;;;;;20.40;16.20;;;7.30;52.60;;;;;;5023195;28;20494;-58
2022/12/11 07:04:52;;;;;;;22.70;16.47;;;7.10;52.80;;;;;;5028443;28;20247;-58
2022/12/11 07:07:18;;;;;;;21.57;15.23;;;6.90;53.00;;;;;;5027447;28;20185;-58
2022/12/11 07:09:44;;;;;;;23.60;16.93;;;6.80;53.50;;;;;;5026875;28;20201;-57
2022/12/11 07:12:10;;;;;;;23.93;15.50;;;6.80;54.00;;;;;;5026199;28;20489;-57
2022/12/11 07:14:35;;;;;;;21.20;16.20;;;6.70;54.10;;;;;;5029081;28;20193;-56
2022/12/11 07:17:01;;;;;;;19.30;14.40;;;6.70;54.20;;;;;;5019633;28;20201;-58
2022/12/11 07:19:26;;;;;;;20.53;15.40;;;6.70;54.40;;;;;;5018809;28;20676;-56
2022/12/11 07:21:52;;;;;;;21.93;16.57;;;6.60;54.70;;;;;;5027338;28;20181;-57
2022/12/11 07:24:18;;;;;;;26.10;17.50;;;6.60;55.10;;;;;;5027556;28;20193;-56
2022/12/11 07:26:43;;;;;;;21.77;16.10;;;6.70;55.30;;;;;;5022911;28;20200;-57
2022/12/11 07:29:09;;;;;;;22.27;15.67;;;6.90;55.30;;;;;;5025832;28;20203;-56
2022/12/11 07:31:35;;;;;;;22.07;15.93;;;7.20;55.30;;;;;;5028346;28;20313;-56
2022/12/11 07:34:04;;;;;;;23.00;15.83;;;7.40;54.10;;;;;;5031144;28;20229;-56
2022/12/11 07:36:30;;;;;;;21.20;14.43;;;7.40;53.60;;;;;;5024255;28;21025;-58
2022/12/11 07:38:56;;;;;;;21.60;15.00;;;7.40;53.50;;;;;;5031918;28;20443;-59
2022/12/11 07:41:22;;;;;;;23.20;15.70;;;7.30;53.50;;;;;;5030569;28;20436;-58
2022/12/11 07:43:48;;;;;;;20.50;15.23;;;7.20;53.60;;;;;;5032909;28;20285;-59
2022/12/11 07:46:20;;;;;;;27.60;15.47;;;7.10;53.80;;;;;;5030984;28;20874;-58
2022/12/11 07:48:46;;;;;;;22.97;16.07;;;7.00;54.10;;;;;;5019195;28;20480;-58
2022/12/11 07:51:26;;;;;;;20.20;15.43;;;7.00;54.10;;;;;;5028156;28;20488;-57
2022/12/11 07:53:54;;;;;;;23.60;16.40;;;6.90;54.40;;;;;;5038670;28;20506;-58
2022/12/11 07:56:20;;;;;;;23.60;17.13;;;6.90;54.70;;;;;;5028499;28;20471;-59
2022/12/11 07:58:46;;;;;;;24.63;18.30;;;6.80;54.90;;;;;;5020413;28;20467;-57
2022/12/11 08:01:21;;;;;;;24.00;17.50;;;6.80;55.10;;;;;;5027706;28;20448;-56
2022/12/11 08:03:47;;;;;;;24.50;17.37;;;6.70;55.50;;;;;;5028104;28;20485;-58
2022/12/11 08:06:13;;;;;;;23.30;18.07;;;6.80;55.70;;;;;;5027912;28;20959;-58
2022/12/11 08:08:40;;;;;;;26.60;20.40;;;6.80;55.80;;;;;;5021069;28;20201;-59
2022/12/11 08:11:10;;;;;;;28.97;20.50;;;6.80;55.90;;;;;;5019307;28;20596;-58
2022/12/11 08:13:36;;;;;;;30.20;21.30;;;6.70;56.70;;;;;;5021739;28;20440;-57
2022/12/11 08:16:06;;;;;;;28.90;21.90;;;6.70;56.20;;;;;;5031098;28;20526;-57
2022/12/11 08:18:33;;;;;;;25.73;18.30;;;6.80;56.20;;;;;;5029537;28;20916;-57
2022/12/11 08:21:03;;;;;;;26.33;18.80;;;6.80;56.20;;;;;;5027809;28;21156;-58
2022/12/11 08:23:29;;;;;;;29.27;20.20;;;6.80;56.30;;;;;;5028401;28;20444;-57
2022/12/11 08:25:54;;;;;;;27.73;20.07;;;6.80;56.30;;;;;;5029109;28;20444;-57
2022/12/11 08:28:20;;;;;;;26.20;19.10;;;6.80;56.60;;;;;;5031232;28;20186;-58
2022/12/11 08:30:45;;;;;;;24.17;18.00;;;6.80;56.80;;;;;;5030086;28;20362;-58
2022/12/11 08:33:11;;;;;;;29.20;20.27;;;6.80;56.70;;;;;;5027410;28;20202;-57
2022/12/11 08:35:40;;;;;;;29.20;20.07;;;6.80;56.70;;;;;;5032604;28;20204;-58
2022/12/11 08:38:05;;;;;;;28.53;19.87;;;6.80;56.80;;;;;;5027991;28;20229;-57
2022/12/11 08:40:31;;;;;;;28.20;19.43;;;6.90;56.70;;;;;;5026044;28;20881;-59
2022/12/11 08:42:57;;;;;;;27.43;19.27;;;6.90;56.70;;;;;;5032363;28;20323;-57
2022/12/11 08:45:22;;;;;;;27.77;19.03;;;6.90;56.80;;;;;;5027731;28;20272;-57
2022/12/11 08:47:48;;;;;;;29.47;20.37;;;6.90;56.70;;;;;;5030705;28;20197;-57
2022/12/11 08:50:13;;;;;;;28.60;19.70;;;6.90;56.60;;;;;;5025195;28;20200;-57
2022/12/11 08:52:39;;;;;;;29.50;20.80;;;6.90;56.50;;;;;;5016494;28;20576;-57
2022/12/11 08:55:05;;;;;;;26.80;18.70;;;6.90;56.60;;;;;;5029954;28;20355;-58
2022/12/11 08:57:31;;;;;;;27.80;19.13;;;6.80;56.50;;;;;;5025492;28;20671;-58
2022/12/11 08:59:56;;;;;;;25.60;18.10;;;6.80;56.40;;;;;;5021399;28;20466;-57
2022/12/11 09:02:22;;;;;;;24.90;18.00;;;6.80;56.60;;;;;;5023515;28;20201;-57
2022/12/11 09:04:47;;;;;;;27.47;19.50;;;6.80;56.70;;;;;;5029698;28;20251;-57
2022/12/11 09:07:13;;;;;;;23.13;17.37;;;6.70;56.80;;;;;;5031263;28;20206;-58
2022/12/11 09:09:38;;;;;;;30.50;19.73;;;6.70;56.90;;;;;;5023002;28;20206;-57
2022/12/11 09:12:04;;;;;;;27.47;19.00;;;6.80;56.90;;;;;;5027198;28;20236;-58
2022/12/11 09:14:30;;;;;;;24.70;17.90;;;6.80;56.70;;;;;;5020536;28;20301;-58
2022/12/11 09:16:56;;;;;;;25.07;18.77;;;6.80;56.70;;;;;;5025977;28;20277;-58
2022/12/11 09:19:21;;;;;;;26.50;18.80;;;6.80;56.80;;;;;;5028953;28;20200;-57
2022/12/11 09:21:47;;;;;;;24.33;18.77;;;6.80;56.90;;;;;;5017242;28;20592;-58
2022/12/11 09:24:22;;;;;;;27.50;20.50;;;6.80;57.20;;;;;;5019910;28;20190;-62
2022/12/11 09:26:47;;;;;;;33.40;20.80;;;6.80;57.30;;;;;;5025868;28;20476;-59
2022/12/11 09:29:13;;;;;;;34.53;22.60;;;6.80;57.10;;;;;;5030145;28;20476;-57
2022/12/11 09:31:39;;;;;;;28.00;20.80;;;6.80;57.40;;;;;;5026272;28;20228;-56
2022/12/11 09:34:07;;;;;;;27.90;20.70;;;6.80;57.40;;;;;;5028894;28;20197;-54
2022/12/11 09:36:33;;;;;;;31.63;20.80;;;6.90;57.30;;;;;;5025211;28;20206;-54
2022/12/11 09:39:03;;;;;;;28.27;20.73;;;6.90;57.00;;;;;;5019012;28;20466;-56
2022/12/11 09:41:36;;;;;;;27.13;19.33;;;7.00;56.90;;;;;;5029367;28;20444;-56
2022/12/11 09:44:32;;;;;;;27.40;19.23;;;7.10;56.70;;;;;;5030405;28;20927;-57
2022/12/11 09:46:58;;;;;;;28.87;20.40;;;7.10;56.40;;;;;;5029097;28;20549;-59
2022/12/11 09:49:27;;;;;;;30.80;21.10;;;6.80;56.60;;;;;;5024726;28;20427;-62
2022/12/11 09:52:04;;;;;;;28.97;19.90;;;6.90;57.30;;;;;;5025128;28;20846;-59
2022/12/11 09:54:31;;;;;;;28.10;20.80;;;7.00;57.30;;;;;;5025526;28;20605;-58
2022/12/11 09:57:10;;;;;;;26.17;19.40;;;7.00;56.70;;;;;;5029042;28;20460;-59
2022/12/11 10:00:10;;;;;;;26.30;19.33;;;7.10;56.70;;;;;;5018045;28;20460;-55
2022/12/11 10:03:07;;;;;;;24.57;16.87;;;7.10;56.40;;;;;;5023316;28;20452;-57
2022/12/11 10:05:39;;;;;;;24.07;16.27;;;7.00;55.60;;;;;;5021291;28;20470;-57
2022/12/11 10:08:15;;;;;;;22.53;16.33;;;7.00;56.00;;;;;;5023581;28;20433;-57
2022/12/11 10:10:48;;;;;;;22.03;16.97;;;7.10;56.10;;;;;;5023258;28;20472;-59
2022/12/11 10:13:52;;;;;;;21.27;15.30;;;7.10;56.10;;;;;;5030902;28;20424;-58
2022/12/11 10:16:35;;;;;;;25.33;17.07;;;7.10;55.80;;;;;;5011700;28;20554;-55
2022/12/11 10:19:02;;;;;;;22.43;16.27;;;7.20;55.60;;;;;;5028320;28;20456;-59
2022/12/11 10:21:41;;;;;;;22.50;17.70;;;7.30;55.40;;;;;;5029218;28;20819;-58
2022/12/11 10:24:19;;;;;;;23.47;16.33;;;7.40;55.20;;;;;;5028038;28;20440;-58
2022/12/11 10:26:46;;;;;;;21.23;14.70;;;7.40;55.10;;;;;;5030910;28;20443;-57
2022/12/11 10:29:13;;;;;;;22.63;16.50;;;7.40;54.60;;;;;;5031731;28;20507;-58
2022/12/11 10:31:51;;;;;;;20.87;15.70;;;7.40;54.60;;;;;;5028695;28;20487;-57
2022/12/11 10:34:35;;;;;;;21.37;16.00;;;7.40;54.70;;;;;;5030669;28;20463;-58
2022/12/11 10:37:01;;;;;;;20.43;15.30;;;7.50;54.60;;;;;;5026462;28;20458;-58
2022/12/11 10:39:27;;;;;;;22.67;15.63;;;7.50;54.60;;;;;;5030686;28;20855;-58
2022/12/11 10:41:54;;;;;;;23.17;15.03;;;7.60;54.80;;;;;;5030140;28;20440;-57
2022/12/11 10:44:22;;;;;;;22.87;14.47;;;7.60;54.50;;;;;;5027583;28;20471;-58
2022/12/11 10:47:01;;;;;;;18.87;14.70;;;7.60;54.50;;;;;;5030455;28;21167;-57
2022/12/11 10:49:32;;;;;;;19.60;14.40;;;7.70;54.40;;;;;;5028726;28;20522;-57
2022/12/11 10:52:01;;;;;;;17.43;13.30;;;7.70;54.30;;;;;;5028041;28;20858;-59
2022/12/11 10:54:52;;;;;;;23.00;14.90;;;7.70;54.40;;;;;;5026424;28;20476;-58
2022/12/11 10:57:29;;;;;;;18.50;13.97;;;7.80;54.40;;;;;;5029675;28;20519;-57
2022/12/11 10:59:56;;;;;;;18.97;14.40;;;7.80;54.60;;;;;;5029387;28;20440;-57
2022/12/11 11:02:27;;;;;;;19.40;15.37;;;7.90;54.50;;;;;;5031638;28;20918;-55
2022/12/11 11:04:54;;;;;;;18.33;13.90;;;7.90;54.00;;;;;;5032079;28;20456;-58
2022/12/11 11:07:28;;;;;;;15.67;11.93;;;8.00;53.70;;;;;;5035437;28;20432;-58
2022/12/11 11:10:16;;;;;;;21.47;14.47;;;8.00;53.40;;;;;;5025031;28;20857;-57
2022/12/11 11:12:48;;;;;;;18.93;14.40;;;8.00;53.20;;;;;;5030137;28;20466;-57
2022/12/11 11:15:18;;;;;;;18.13;13.00;;;8.00;53.10;;;;;;5026971;28;20440;-57
2022/12/11 11:17:53;;;;;;;16.77;12.77;;;8.00;53.50;;;;;;5034627;28;20436;-56
2022/12/11 11:20:21;;;;;;;18.67;14.30;;;8.00;53.60;;;;;;5034142;28;20427;-57
2022/12/11 11:22:52;;;;;;;19.90;14.23;;;8.00;53.90;;;;;;5023263;28;20459;-57
2022/12/11 11:25:25;;;;;;;22.93;14.93;;;8.10;53.90;;;;;;5018134;28;20836;-56
2022/12/11 11:27:58;;;;;;;22.43;15.23;;;8.10;53.90;;;;;;5028608;28;21053;-56
2022/12/11 11:30:26;;;;;;;21.50;15.47;;;8.20;54.50;;;;;;5029007;28;21036;-57
2022/12/11 11:32:59;;;;;;;23.37;16.47;;;8.20;54.00;;;;;;5027564;28;20473;-57
2022/12/11 11:35:27;;;;;;;19.00;13.60;;;8.30;53.60;;;;;;5031966;28;20489;-57
2022/12/11 11:37:59;;;;;;;21.07;14.50;;;8.30;53.20;;;;;;5018701;28;20441;-55
2022/12/11 11:40:35;;;;;;;23.07;14.27;;;8.20;52.80;;;;;;5022752;28;20474;-56
2022/12/11 11:43:27;;;;;;;16.50;12.33;;;8.30;53.10;;;;;;5026242;28;20457;-56
2022/12/11 11:46:02;;;;;;;19.10;11.50;;;8.30;53.00;;;;;;5032399;28;20565;-57
2022/12/11 11:48:41;;;;;;;13.87;11.30;;;8.30;52.30;;;;;;5024239;28;20943;-57
2022/12/11 11:51:13;;;;;;;17.07;12.10;;;8.30;52.60;;;;;;5026491;28;20479;-56
2022/12/11 11:53:40;;;;;;;14.80;10.90;;;8.30;52.60;;;;;;5031569;28;20982;-58
2022/12/11 11:56:22;;;;;;;20.27;13.20;;;8.30;52.40;;;;;;5033467;28;20447;-57
2022/12/11 11:59:33;;;;;;;20.93;12.00;;;8.40;52.50;;;;;;5021784;28;20432;-57
2022/12/11 12:01:59;;;;;;;15.17;11.90;;;8.40;51.90;;;;;;5025707;28;20462;-58
2022/12/11 12:04:32;;;;;;;15.70;11.10;;;8.40;51.90;;;;;;5031803;28;20442;-57
2022/12/11 12:07:09;;;;;;;16.30;11.30;;;8.50;52.40;;;;;;5032042;28;20440;-57
2022/12/11 12:10:14;;;;;;;15.87;11.17;;;8.50;52.20;;;;;;5032676;28;20982;-57
2022/12/11 12:13:16;;;;;;;16.67;12.97;;;8.50;52.00;;;;;;5029834;28;20517;-57
2022/12/11 12:15:55;;;;;;;16.33;12.00;;;8.50;51.50;;;;;;5032697;28;20455;-58
2022/12/11 12:18:42;;;;;;;19.43;12.30;;;8.50;51.40;;;;;;5033247;28;20602;-57
2022/12/11 12:21:33;;;;;;;16.37;12.73;;;8.50;51.70;;;;;;5033648;28;20448;-56
2022/12/11 12:24:01;;;;;;;17.73;11.60;;;8.40;51.20;;;;;;5014200;28;20452;-58
2022/12/11 12:26:36;;;;;;;18.00;12.70;;;8.40;51.70;;;;;;5014218;28;20439;-57
2022/12/11 12:29:20;;;;;;;16.77;11.80;;;8.40;52.00;;;;;;5027658;28;20975;-57
2022/12/11 12:32:36;;;;;;;17.87;12.87;;;8.40;52.20;;;;;;5022322;28;20486;-58
2022/12/11 12:35:16;;;;;;;15.33;11.63;;;8.40;52.50;;;;;;4997901;28;20824;-56
2022/12/11 12:37:50;;;;;;;14.87;11.37;;;8.40;52.80;;;;;;5032671;28;20458;-57
2022/12/11 12:40:25;;;;;;;16.00;10.97;;;8.40;52.80;;;;;;5022869;28;20458;-57
2022/12/11 12:43:00;;;;;;;18.67;11.77;;;8.40;52.40;;;;;;5030558;28;20448;-58
2022/12/11 12:45:29;;;;;;;17.67;11.93;;;8.30;51.70;;;;;;5026739;28;20459;-57
2022/12/11 12:47:54;;;;;;;23.30;14.87;;;8.40;52.10;;;;;;5018827;28;20454;-54
2022/12/11 12:50:27;;;;;;;20.20;14.47;;;8.40;52.40;;;;;;5026419;28;20445;-58
2022/12/11 12:52:53;;;;;;;22.07;14.57;;;8.40;52.60;;;;;;5030172;28;20584;-57
2022/12/11 12:55:26;;;;;;;16.47;12.43;;;8.50;52.60;;;;;;5019424;28;20444;-58
2022/12/11 12:58:04;;;;;;;19.00;13.10;;;8.40;52.80;;;;;;5027663;28;20454;-65
2022/12/11 13:00:42;;;;;;;17.77;12.93;;;8.40;52.60;;;;;;5018962;28;20509;-57
2022/12/11 13:03:15;;;;;;;23.43;14.47;;;8.40;52.60;;;;;;5031982;28;20934;-54